18°C Temp
15°C Dewpoint
83% Humidity
Temperature
10 KM/H
6 MPH
5 KTS
350°
Due North

Wind Speed
Clear
Conditions
Pressure 1004.92 (hPa) - 29.68 (in)
Visibility 6.2 (mi) - 10.0 (km)

Current Conditions
ESMS
Location 25(km)
Metar :ESMS 111750Z 35005KT CAVOK 18/15 Q1005
Tue 11th May 19:50 pm

Airport
  Metar Aviation API Data Provided by https://www.checkwx.com/ PHP scripts by weather34.com ©2021